sensor_id;sensor_type;location;lat;lon;timestamp;P1;durP1;ratioP1;P2;durP2;ratioP2
52320;SDS011;38261;54.090;13.382;2023-05-02T00:00:18;11.53;;;4.70;;
52320;SDS011;38261;54.090;13.382;2023-05-02T00:01:40;7.17;;;4.90;;
52320;SDS011;38261;54.090;13.382;2023-05-02T00:03:03;6.33;;;4.40;;
52320;SDS011;38261;54.090;13.382;2023-05-02T00:04:27;5.73;;;4.17;;
52320;SDS011;38261;54.090;13.382;2023-05-02T00:05:50;7.73;;;4.30;;
52320;SDS011;38261;54.090;13.382;2023-05-02T00:07:12;6.20;;;4.20;;
52320;SDS011;38261;54.090;13.382;2023-05-02T00:08:34;7.00;;;3.87;;
52320;SDS011;38261;54.090;13.382;2023-05-02T00:09:56;6.50;;;3.50;;
52320;SDS011;38261;54.090;13.382;2023-05-02T00:11:19;10.00;;;4.60;;
52320;SDS011;38261;54.090;13.382;2023-05-02T00:12:41;5.13;;;3.60;;
52320;SDS011;38261;54.090;13.382;2023-05-02T00:14:04;7.50;;;3.87;;
52320;SDS011;38261;54.090;13.382;2023-05-02T00:15:26;6.20;;;4.70;;
52320;SDS011;38261;54.090;13.382;2023-05-02T00:16:48;8.07;;;3.90;;
52320;SDS011;38261;54.090;13.382;2023-05-02T00:18:10;9.03;;;3.70;;
52320;SDS011;38261;54.090;13.382;2023-05-02T00:19:36;13.10;;;4.33;;
52320;SDS011;38261;54.090;13.382;2023-05-02T00:21:00;5.73;;;3.80;;
52320;SDS011;38261;54.090;13.382;2023-05-02T00:22:22;8.23;;;4.17;;
52320;SDS011;38261;54.090;13.382;2023-05-02T00:23:44;7.03;;;3.77;;
52320;SDS011;38261;54.090;13.382;2023-05-02T00:25:07;5.70;;;3.93;;
52320;SDS011;38261;54.090;13.382;2023-05-02T00:26:29;6.03;;;3.70;;
52320;SDS011;38261;54.090;13.382;2023-05-02T00:27:51;6.10;;;3.87;;
52320;SDS011;38261;54.090;13.382;2023-05-02T00:29:13;7.20;;;4.23;;
52320;SDS011;38261;54.090;13.382;2023-05-02T00:30:36;5.53;;;4.23;;
52320;SDS011;38261;54.090;13.382;2023-05-02T00:32:04;5.90;;;4.10;;
52320;SDS011;38261;54.090;13.382;2023-05-02T00:33:26;10.10;;;4.10;;
52320;SDS011;38261;54.090;13.382;2023-05-02T00:34:48;6.50;;;3.93;;
52320;SDS011;38261;54.090;13.382;2023-05-02T00:36:14;5.97;;;3.97;;
52320;SDS011;38261;54.090;13.382;2023-05-02T00:37:37;6.30;;;3.63;;
52320;SDS011;38261;54.090;13.382;2023-05-02T00:38:59;8.00;;;4.13;;
52320;SDS011;38261;54.090;13.382;2023-05-02T00:40:21;9.23;;;4.20;;
52320;SDS011;38261;54.090;13.382;2023-05-02T00:41:43;10.20;;;4.23;;
52320;SDS011;38261;54.090;13.382;2023-05-02T00:43:06;4.63;;;3.37;;
52320;SDS011;38261;54.090;13.382;2023-05-02T00:44:28;4.80;;;3.30;;
52320;SDS011;38261;54.090;13.382;2023-05-02T00:45:50;7.53;;;3.50;;
52320;SDS011;38261;54.090;13.382;2023-05-02T00:47:13;8.43;;;4.37;;
52320;SDS011;38261;54.090;13.382;2023-05-02T00:48:36;6.20;;;4.03;;
52320;SDS011;38261;54.090;13.382;2023-05-02T00:49:58;5.53;;;3.43;;
52320;SDS011;38261;54.090;13.382;2023-05-02T00:51:22;4.83;;;3.33;;
52320;SDS011;38261;54.090;13.382;2023-05-02T00:52:44;7.27;;;3.93;;
52320;SDS011;38261;54.090;13.382;2023-05-02T00:54:06;7.97;;;3.80;;
52320;SDS011;38261;54.090;13.382;2023-05-02T00:55:28;6.20;;;3.50;;
52320;SDS011;38261;54.090;13.382;2023-05-02T00:56:51;10.57;;;4.00;;
52320;SDS011;38261;54.090;13.382;2023-05-02T00:58:14;5.70;;;3.33;;
52320;SDS011;38261;54.090;13.382;2023-05-02T00:59:37;8.90;;;4.07;;
52320;SDS011;38261;54.090;13.382;2023-05-02T01:01:07;7.40;;;4.03;;
52320;SDS011;38261;54.090;13.382;2023-05-02T01:02:57;10.33;;;3.80;;
52320;SDS011;38261;54.090;13.382;2023-05-02T01:08:28;5.17;;;3.20;;
52320;SDS011;38261;54.090;13.382;2023-05-02T01:11:52;10.03;;;3.90;;
52320;SDS011;38261;54.090;13.382;2023-05-02T01:13:33;5.63;;;3.70;;
52320;SDS011;38261;54.090;13.382;2023-05-02T01:14:57;7.43;;;4.10;;
52320;SDS011;38261;54.090;13.382;2023-05-02T01:16:22;8.63;;;4.47;;
52320;SDS011;38261;54.090;13.382;2023-05-02T01:17:45;5.23;;;3.90;;
52320;SDS011;38261;54.090;13.382;2023-05-02T01:19:11;7.23;;;3.93;;
52320;SDS011;38261;54.090;13.382;2023-05-02T01:20:45;6.10;;;3.70;;
52320;SDS011;38261;54.090;13.382;2023-05-02T01:22:11;7.30;;;4.83;;
52320;SDS011;38261;54.090;13.382;2023-05-02T01:28:35;6.70;;;4.03;;
52320;SDS011;38261;54.090;13.382;2023-05-02T01:30:14;11.17;;;4.13;;
52320;SDS011;38261;54.090;13.382;2023-05-02T01:31:41;7.30;;;3.93;;
52320;SDS011;38261;54.090;13.382;2023-05-02T01:33:07;11.00;;;3.90;;
52320;SDS011;38261;54.090;13.382;2023-05-02T01:34:32;6.47;;;3.53;;
52320;SDS011;38261;54.090;13.382;2023-05-02T01:35:56;7.50;;;4.17;;
52320;SDS011;38261;54.090;13.382;2023-05-02T01:37:21;6.10;;;3.50;;
52320;SDS011;38261;54.090;13.382;2023-05-02T01:38:44;13.07;;;4.33;;
52320;SDS011;38261;54.090;13.382;2023-05-02T01:40:08;5.67;;;3.40;;
52320;SDS011;38261;54.090;13.382;2023-05-02T01:41:31;9.40;;;3.73;;
52320;SDS011;38261;54.090;13.382;2023-05-02T01:42:55;8.63;;;3.60;;
52320;SDS011;38261;54.090;13.382;2023-05-02T01:44:19;9.00;;;3.63;;
52320;SDS011;38261;54.090;13.382;2023-05-02T01:45:44;4.53;;;3.20;;
52320;SDS011;38261;54.090;13.382;2023-05-02T01:47:07;8.67;;;4.00;;
52320;SDS011;38261;54.090;13.382;2023-05-02T01:48:30;6.27;;;4.10;;
52320;SDS011;38261;54.090;13.382;2023-05-02T01:49:53;9.73;;;4.20;;
52320;SDS011;38261;54.090;13.382;2023-05-02T01:51:16;4.73;;;3.80;;
52320;SDS011;38261;54.090;13.382;2023-05-02T01:52:41;6.93;;;4.37;;
52320;SDS011;38261;54.090;13.382;2023-05-02T01:54:05;6.60;;;3.80;;
52320;SDS011;38261;54.090;13.382;2023-05-02T01:55:29;9.67;;;4.50;;
52320;SDS011;38261;54.090;13.382;2023-05-02T01:56:53;6.03;;;4.17;;
52320;SDS011;38261;54.090;13.382;2023-05-02T01:58:17;9.33;;;3.87;;
52320;SDS011;38261;54.090;13.382;2023-05-02T01:59:41;8.43;;;4.60;;
52320;SDS011;38261;54.090;13.382;2023-05-02T02:01:05;6.00;;;4.17;;
52320;SDS011;38261;54.090;13.382;2023-05-02T02:02:30;6.37;;;4.00;;
52320;SDS011;38261;54.090;13.382;2023-05-02T02:03:54;6.53;;;4.20;;
52320;SDS011;38261;54.090;13.382;2023-05-02T02:05:18;8.53;;;4.23;;
52320;SDS011;38261;54.090;13.382;2023-05-02T02:06:43;6.70;;;3.73;;
52320;SDS011;38261;54.090;13.382;2023-05-02T02:08:09;6.30;;;4.17;;
52320;SDS011;38261;54.090;13.382;2023-05-02T02:09:31;6.67;;;4.00;;
52320;SDS011;38261;54.090;13.382;2023-05-02T02:10:56;6.47;;;4.43;;
52320;SDS011;38261;54.090;13.382;2023-05-02T02:12:30;11.97;;;4.73;;
52320;SDS011;38261;54.090;13.382;2023-05-02T02:14:01;14.90;;;3.90;;
52320;SDS011;38261;54.090;13.382;2023-05-02T02:15:27;7.50;;;4.27;;
52320;SDS011;38261;54.090;13.382;2023-05-02T02:16:52;5.50;;;4.43;;
52320;SDS011;38261;54.090;13.382;2023-05-02T02:18:17;14.00;;;4.63;;
52320;SDS011;38261;54.090;13.382;2023-05-02T02:19:42;6.73;;;4.43;;
52320;SDS011;38261;54.090;13.382;2023-05-02T02:21:06;8.37;;;4.87;;
52320;SDS011;38261;54.090;13.382;2023-05-02T02:22:33;13.77;;;4.90;;
52320;SDS011;38261;54.090;13.382;2023-05-02T02:23:57;13.83;;;4.40;;
52320;SDS011;38261;54.090;13.382;2023-05-02T02:25:24;6.80;;;4.27;;
52320;SDS011;38261;54.090;13.382;2023-05-02T02:26:47;7.37;;;4.80;;
52320;SDS011;38261;54.090;13.382;2023-05-02T02:28:09;7.00;;;4.63;;
52320;SDS011;38261;54.090;13.382;2023-05-02T02:29:32;10.50;;;4.13;;
52320;SDS011;38261;54.090;13.382;2023-05-02T02:30:54;8.77;;;4.80;;
52320;SDS011;38261;54.090;13.382;2023-05-02T02:32:17;15.00;;;4.33;;
52320;SDS011;38261;54.090;13.382;2023-05-02T02:33:39;6.13;;;4.17;;
52320;SDS011;38261;54.090;13.382;2023-05-02T02:35:01;9.73;;;4.50;;
52320;SDS011;38261;54.090;13.382;2023-05-02T02:36:30;5.80;;;4.63;;
52320;SDS011;38261;54.090;13.382;2023-05-02T02:41:30;8.07;;;4.60;;
52320;SDS011;38261;54.090;13.382;2023-05-02T02:43:07;10.23;;;5.37;;
52320;SDS011;38261;54.090;13.382;2023-05-02T02:52:32;13.20;;;5.87;;
52320;SDS011;38261;54.090;13.382;2023-05-02T02:54:13;10.40;;;5.97;;
52320;SDS011;38261;54.090;13.382;2023-05-02T02:55:57;14.60;;;6.17;;
52320;SDS011;38261;54.090;13.382;2023-05-02T02:59:11;10.73;;;5.40;;
52320;SDS011;38261;54.090;13.382;2023-05-02T03:00:45;13.17;;;5.97;;
52320;SDS011;38261;54.090;13.382;2023-05-02T03:02:11;10.93;;;5.80;;
52320;SDS011;38261;54.090;13.382;2023-05-02T03:03:37;8.43;;;5.13;;
52320;SDS011;38261;54.090;13.382;2023-05-02T03:05:01;9.97;;;6.50;;
52320;SDS011;38261;54.090;13.382;2023-05-02T03:06:24;9.50;;;5.50;;
52320;SDS011;38261;54.090;13.382;2023-05-02T03:07:47;13.50;;;6.47;;
52320;SDS011;38261;54.090;13.382;2023-05-02T03:09:15;11.17;;;6.50;;
52320;SDS011;38261;54.090;13.382;2023-05-02T03:10:39;11.13;;;6.70;;
52320;SDS011;38261;54.090;13.382;2023-05-02T03:12:01;19.40;;;6.90;;
52320;SDS011;38261;54.090;13.382;2023-05-02T03:13:23;9.87;;;6.43;;
52320;SDS011;38261;54.090;13.382;2023-05-02T03:14:45;10.53;;;6.23;;
52320;SDS011;38261;54.090;13.382;2023-05-02T03:17:48;14.17;;;6.93;;
52320;SDS011;38261;54.090;13.382;2023-05-02T03:19:10;14.77;;;7.27;;
52320;SDS011;38261;54.090;13.382;2023-05-02T03:20:33;14.50;;;7.50;;
52320;SDS011;38261;54.090;13.382;2023-05-02T03:21:55;17.17;;;7.83;;
52320;SDS011;38261;54.090;13.382;2023-05-02T03:23:17;13.57;;;7.50;;
52320;SDS011;38261;54.090;13.382;2023-05-02T03:24:40;14.87;;;8.13;;
52320;SDS011;38261;54.090;13.382;2023-05-02T03:26:02;14.00;;;7.90;;
52320;SDS011;38261;54.090;13.382;2023-05-02T03:27:24;19.60;;;9.70;;
52320;SDS011;38261;54.090;13.382;2023-05-02T03:28:46;16.77;;;8.30;;
52320;SDS011;38261;54.090;13.382;2023-05-02T03:30:10;15.53;;;8.03;;
52320;SDS011;38261;54.090;13.382;2023-05-02T03:31:33;20.87;;;9.33;;
52320;SDS011;38261;54.090;13.382;2023-05-02T03:32:55;22.40;;;9.77;;
52320;SDS011;38261;54.090;13.382;2023-05-02T03:34:17;23.33;;;10.70;;
52320;SDS011;38261;54.090;13.382;2023-05-02T03:35:42;25.83;;;10.73;;
52320;SDS011;38261;54.090;13.382;2023-05-02T03:37:04;22.43;;;10.63;;
52320;SDS011;38261;54.090;13.382;2023-05-02T03:38:28;19.40;;;10.50;;
52320;SDS011;38261;54.090;13.382;2023-05-02T03:39:50;23.63;;;11.50;;
52320;SDS011;38261;54.090;13.382;2023-05-02T03:41:12;22.07;;;10.50;;
52320;SDS011;38261;54.090;13.382;2023-05-02T03:42:34;19.87;;;11.20;;
52320;SDS011;38261;54.090;13.382;2023-05-02T03:44:05;21.23;;;10.80;;
52320;SDS011;38261;54.090;13.382;2023-05-02T03:45:27;22.40;;;11.60;;
52320;SDS011;38261;54.090;13.382;2023-05-02T03:46:49;20.10;;;11.27;;
52320;SDS011;38261;54.090;13.382;2023-05-02T03:48:12;19.77;;;11.13;;
52320;SDS011;38261;54.090;13.382;2023-05-02T03:49:34;21.70;;;12.43;;
52320;SDS011;38261;54.090;13.382;2023-05-02T03:50:57;23.70;;;12.20;;
52320;SDS011;38261;54.090;13.382;2023-05-02T03:52:19;29.33;;;12.50;;
52320;SDS011;38261;54.090;13.382;2023-05-02T03:53:41;21.47;;;11.67;;
52320;SDS011;38261;54.090;13.382;2023-05-02T03:55:04;24.97;;;12.40;;
52320;SDS011;38261;54.090;13.382;2023-05-02T03:56:28;27.60;;;12.60;;
52320;SDS011;38261;54.090;13.382;2023-05-02T03:57:50;26.87;;;12.27;;
52320;SDS011;38261;54.090;13.382;2023-05-02T03:59:13;24.30;;;11.43;;
52320;SDS011;38261;54.090;13.382;2023-05-02T04:00:35;26.33;;;11.40;;
52320;SDS011;38261;54.090;13.382;2023-05-02T04:01:58;20.83;;;12.17;;
52320;SDS011;38261;54.090;13.382;2023-05-02T04:03:21;32.50;;;12.40;;
52320;SDS011;38261;54.090;13.382;2023-05-02T04:04:43;25.90;;;12.80;;
52320;SDS011;38261;54.090;13.382;2023-05-02T04:06:05;31.90;;;13.00;;
52320;SDS011;38261;54.090;13.382;2023-05-02T04:07:27;27.40;;;12.77;;
52320;SDS011;38261;54.090;13.382;2023-05-02T04:08:50;27.17;;;11.93;;
52320;SDS011;38261;54.090;13.382;2023-05-02T04:10:12;22.57;;;12.27;;
52320;SDS011;38261;54.090;13.382;2023-05-02T04:11:37;21.90;;;11.67;;
52320;SDS011;38261;54.090;13.382;2023-05-02T04:12:59;24.33;;;12.53;;
52320;SDS011;38261;54.090;13.382;2023-05-02T04:14:23;22.20;;;12.03;;
52320;SDS011;38261;54.090;13.382;2023-05-02T04:15:45;21.87;;;10.97;;
52320;SDS011;38261;54.090;13.382;2023-05-02T04:17:07;26.00;;;12.03;;
52320;SDS011;38261;54.090;13.382;2023-05-02T04:18:30;20.77;;;11.00;;
52320;SDS011;38261;54.090;13.382;2023-05-02T04:19:52;23.70;;;11.67;;
52320;SDS011;38261;54.090;13.382;2023-05-02T04:21:14;25.30;;;13.60;;
52320;SDS011;38261;54.090;13.382;2023-05-02T04:22:36;22.63;;;11.93;;
52320;SDS011;38261;54.090;13.382;2023-05-02T04:24:00;20.27;;;11.33;;
52320;SDS011;38261;54.090;13.382;2023-05-02T04:25:22;19.37;;;11.27;;
52320;SDS011;38261;54.090;13.382;2023-05-02T04:26:44;22.03;;;11.03;;
52320;SDS011;38261;54.090;13.382;2023-05-02T04:28:09;24.67;;;11.03;;
52320;SDS011;38261;54.090;13.382;2023-05-02T04:29:31;26.30;;;11.63;;
52320;SDS011;38261;54.090;13.382;2023-05-02T04:30:53;20.83;;;11.60;;
52320;SDS011;38261;54.090;13.382;2023-05-02T04:32:16;23.90;;;11.20;;
52320;SDS011;38261;54.090;13.382;2023-05-02T04:33:38;21.57;;;12.30;;
52320;SDS011;38261;54.090;13.382;2023-05-02T04:35:00;24.43;;;11.50;;
52320;SDS011;38261;54.090;13.382;2023-05-02T04:36:23;20.30;;;11.13;;
52320;SDS011;38261;54.090;13.382;2023-05-02T04:37:46;20.73;;;11.60;;
52320;SDS011;38261;54.090;13.382;2023-05-02T04:39:08;21.23;;;12.20;;
52320;SDS011;38261;54.090;13.382;2023-05-02T04:40:31;20.63;;;11.60;;
52320;SDS011;38261;54.090;13.382;2023-05-02T04:41:53;28.47;;;13.80;;
52320;SDS011;38261;54.090;13.382;2023-05-02T04:43:15;21.00;;;11.33;;
52320;SDS011;38261;54.090;13.382;2023-05-02T04:44:37;23.40;;;12.40;;
52320;SDS011;38261;54.090;13.382;2023-05-02T04:46:00;22.70;;;11.90;;
52320;SDS011;38261;54.090;13.382;2023-05-02T04:47:22;21.40;;;12.90;;
52320;SDS011;38261;54.090;13.382;2023-05-02T04:48:44;21.40;;;12.33;;
52320;SDS011;38261;54.090;13.382;2023-05-02T04:50:06;23.20;;;12.60;;
52320;SDS011;38261;54.090;13.382;2023-05-02T04:51:29;27.10;;;12.30;;
52320;SDS011;38261;54.090;13.382;2023-05-02T04:52:52;26.27;;;12.37;;
52320;SDS011;38261;54.090;13.382;2023-05-02T04:54:14;22.57;;;11.60;;
52320;SDS011;38261;54.090;13.382;2023-05-02T04:55:36;21.67;;;12.60;;
52320;SDS011;38261;54.090;13.382;2023-05-02T04:56:58;24.60;;;13.10;;
52320;SDS011;38261;54.090;13.382;2023-05-02T04:58:23;25.20;;;13.20;;
52320;SDS011;38261;54.090;13.382;2023-05-02T04:59:45;21.70;;;11.20;;
52320;SDS011;38261;54.090;13.382;2023-05-02T05:01:07;28.40;;;11.83;;
52320;SDS011;38261;54.090;13.382;2023-05-02T05:02:30;21.10;;;11.57;;
52320;SDS011;38261;54.090;13.382;2023-05-02T05:03:52;24.67;;;11.83;;
52320;SDS011;38261;54.090;13.382;2023-05-02T05:05:15;27.97;;;12.37;;
52320;SDS011;38261;54.090;13.382;2023-05-02T05:06:37;22.87;;;12.50;;
52320;SDS011;38261;54.090;13.382;2023-05-02T05:07:59;23.73;;;12.73;;
52320;SDS011;38261;54.090;13.382;2023-05-02T05:09:21;24.93;;;12.23;;
52320;SDS011;38261;54.090;13.382;2023-05-02T05:10:43;23.83;;;12.37;;
52320;SDS011;38261;54.090;13.382;2023-05-02T05:12:09;23.73;;;11.90;;
52320;SDS011;38261;54.090;13.382;2023-05-02T05:13:31;27.43;;;12.83;;
52320;SDS011;38261;54.090;13.382;2023-05-02T05:14:56;26.33;;;13.70;;
52320;SDS011;38261;54.090;13.382;2023-05-02T05:16:18;24.53;;;12.60;;
52320;SDS011;38261;54.090;13.382;2023-05-02T05:17:40;24.63;;;12.00;;
52320;SDS011;38261;54.090;13.382;2023-05-02T05:19:03;20.43;;;11.77;;
52320;SDS011;38261;54.090;13.382;2023-05-02T05:20:25;29.60;;;13.27;;
52320;SDS011;38261;54.090;13.382;2023-05-02T05:21:47;23.70;;;13.63;;
52320;SDS011;38261;54.090;13.382;2023-05-02T05:23:09;25.20;;;12.00;;
52320;SDS011;38261;54.090;13.382;2023-05-02T05:24:32;25.07;;;13.33;;
52320;SDS011;38261;54.090;13.382;2023-05-02T05:25:54;26.37;;;12.50;;
52320;SDS011;38261;54.090;13.382;2023-05-02T05:27:16;25.90;;;12.67;;
52320;SDS011;38261;54.090;13.382;2023-05-02T05:28:38;24.73;;;11.80;;
52320;SDS011;38261;54.090;13.382;2023-05-02T05:30:00;21.80;;;11.97;;
52320;SDS011;38261;54.090;13.382;2023-05-02T05:31:24;25.20;;;12.53;;
52320;SDS011;38261;54.090;13.382;2023-05-02T05:32:46;25.67;;;13.37;;
52320;SDS011;38261;54.090;13.382;2023-05-02T05:34:09;27.40;;;12.93;;
52320;SDS011;38261;54.090;13.382;2023-05-02T05:35:31;23.33;;;12.30;;
52320;SDS011;38261;54.090;13.382;2023-05-02T05:36:53;26.77;;;12.70;;
52320;SDS011;38261;54.090;13.382;2023-05-02T05:38:15;19.10;;;11.07;;
52320;SDS011;38261;54.090;13.382;2023-05-02T05:39:37;22.70;;;10.10;;
52320;SDS011;38261;54.090;13.382;2023-05-02T05:40:59;25.87;;;12.10;;
52320;SDS011;38261;54.090;13.382;2023-05-02T05:42:22;22.20;;;11.00;;
52320;SDS011;38261;54.090;13.382;2023-05-02T05:43:44;21.20;;;7.40;;
52320;SDS011;38261;54.090;13.382;2023-05-02T05:45:06;14.23;;;6.60;;
52320;SDS011;38261;54.090;13.382;2023-05-02T05:46:29;15.27;;;5.60;;
52320;SDS011;38261;54.090;13.382;2023-05-02T05:47:52;18.17;;;5.27;;
52320;SDS011;38261;54.090;13.382;2023-05-02T05:49:16;18.20;;;5.60;;
52320;SDS011;38261;54.090;13.382;2023-05-02T05:50:38;10.43;;;4.87;;
52320;SDS011;38261;54.090;13.382;2023-05-02T05:52:01;20.73;;;4.90;;
52320;SDS011;38261;54.090;13.382;2023-05-02T05:53:23;19.53;;;6.20;;
52320;SDS011;38261;54.090;13.382;2023-05-02T05:54:45;15.20;;;5.50;;
52320;SDS011;38261;54.090;13.382;2023-05-02T05:56:08;15.20;;;5.10;;
52320;SDS011;38261;54.090;13.382;2023-05-02T05:57:33;21.00;;;5.43;;
52320;SDS011;38261;54.090;13.382;2023-05-02T05:58:55;14.63;;;5.23;;
52320;SDS011;38261;54.090;13.382;2023-05-02T06:00:17;13.67;;;5.83;;
52320;SDS011;38261;54.090;13.382;2023-05-02T06:01:40;14.73;;;5.13;;
52320;SDS011;38261;54.090;13.382;2023-05-02T06:03:03;17.53;;;4.40;;
52320;SDS011;38261;54.090;13.382;2023-05-02T06:04:28;17.97;;;5.90;;
52320;SDS011;38261;54.090;13.382;2023-05-02T06:05:51;10.67;;;4.47;;
52320;SDS011;38261;54.090;13.382;2023-05-02T06:07:13;15.10;;;5.00;;
52320;SDS011;38261;54.090;13.382;2023-05-02T06:08:35;17.67;;;5.37;;
52320;SDS011;38261;54.090;13.382;2023-05-02T06:09:57;19.47;;;5.57;;
52320;SDS011;38261;54.090;13.382;2023-05-02T06:11:19;18.47;;;4.90;;
52320;SDS011;38261;54.090;13.382;2023-05-02T06:12:41;22.67;;;4.50;;
52320;SDS011;38261;54.090;13.382;2023-05-02T06:14:03;15.73;;;5.00;;
52320;SDS011;38261;54.090;13.382;2023-05-02T06:15:25;14.70;;;4.60;;
52320;SDS011;38261;54.090;13.382;2023-05-02T06:16:48;20.60;;;4.87;;
52320;SDS011;38261;54.090;13.382;2023-05-02T06:18:10;15.40;;;4.57;;
52320;SDS011;38261;54.090;13.382;2023-05-02T06:19:32;19.10;;;4.73;;
52320;SDS011;38261;54.090;13.382;2023-05-02T06:20:54;17.23;;;4.90;;
52320;SDS011;38261;54.090;13.382;2023-05-02T06:22:16;14.40;;;4.30;;
52320;SDS011;38261;54.090;13.382;2023-05-02T06:23:38;26.23;;;6.87;;
52320;SDS011;38261;54.090;13.382;2023-05-02T06:25:01;21.33;;;5.50;;
52320;SDS011;38261;54.090;13.382;2023-05-02T06:26:25;18.83;;;5.87;;
52320;SDS011;38261;54.090;13.382;2023-05-02T06:27:47;18.27;;;5.40;;
52320;SDS011;38261;54.090;13.382;2023-05-02T06:29:09;17.00;;;4.90;;
52320;SDS011;38261;54.090;13.382;2023-05-02T06:30:31;25.40;;;6.67;;
52320;SDS011;38261;54.090;13.382;2023-05-02T06:31:54;20.97;;;5.63;;
52320;SDS011;38261;54.090;13.382;2023-05-02T06:33:17;21.27;;;5.50;;
52320;SDS011;38261;54.090;13.382;2023-05-02T06:34:39;23.17;;;5.00;;
52320;SDS011;38261;54.090;13.382;2023-05-02T06:36:01;21.70;;;6.57;;
52320;SDS011;38261;54.090;13.382;2023-05-02T06:37:24;20.93;;;5.70;;
52320;SDS011;38261;54.090;13.382;2023-05-02T06:38:46;17.33;;;3.87;;
52320;SDS011;38261;54.090;13.382;2023-05-02T06:40:08;16.63;;;3.97;;
52320;SDS011;38261;54.090;13.382;2023-05-02T06:41:31;16.53;;;4.13;;
52320;SDS011;38261;54.090;13.382;2023-05-02T06:42:53;19.77;;;4.30;;
52320;SDS011;38261;54.090;13.382;2023-05-02T06:44:16;12.90;;;4.03;;
52320;SDS011;38261;54.090;13.382;2023-05-02T06:45:38;16.40;;;4.47;;
52320;SDS011;38261;54.090;13.382;2023-05-02T06:47:02;23.77;;;4.17;;
52320;SDS011;38261;54.090;13.382;2023-05-02T06:48:25;23.53;;;4.57;;
52320;SDS011;38261;54.090;13.382;2023-05-02T06:49:47;15.53;;;3.97;;
52320;SDS011;38261;54.090;13.382;2023-05-02T06:51:09;23.67;;;5.17;;
52320;SDS011;38261;54.090;13.382;2023-05-02T06:52:31;14.70;;;4.67;;
52320;SDS011;38261;54.090;13.382;2023-05-02T06:53:53;17.10;;;4.70;;
52320;SDS011;38261;54.090;13.382;2023-05-02T06:55:15;11.30;;;3.70;;
52320;SDS011;38261;54.090;13.382;2023-05-02T06:56:37;17.93;;;5.63;;
52320;SDS011;38261;54.090;13.382;2023-05-02T06:57:59;8.27;;;4.17;;
52320;SDS011;38261;54.090;13.382;2023-05-02T06:59:21;8.83;;;3.77;;
52320;SDS011;38261;54.090;13.382;2023-05-02T07:00:44;21.37;;;4.13;;
52320;SDS011;38261;54.090;13.382;2023-05-02T07:02:06;11.43;;;3.00;;
52320;SDS011;38261;54.090;13.382;2023-05-02T07:03:28;20.07;;;4.70;;
52320;SDS011;38261;54.090;13.382;2023-05-02T07:04:50;11.83;;;3.87;;
52320;SDS011;38261;54.090;13.382;2023-05-02T07:06:12;12.50;;;3.67;;
52320;SDS011;38261;54.090;13.382;2023-05-02T07:07:35;12.10;;;3.80;;
52320;SDS011;38261;54.090;13.382;2023-05-02T07:08:57;10.43;;;3.10;;
52320;SDS011;38261;54.090;13.382;2023-05-02T07:10:19;16.67;;;4.60;;
52320;SDS011;38261;54.090;13.382;2023-05-02T07:11:41;10.40;;;3.50;;
52320;SDS011;38261;54.090;13.382;2023-05-02T07:13:03;8.37;;;3.10;;
52320;SDS011;38261;54.090;13.382;2023-05-02T07:14:25;11.40;;;3.60;;
52320;SDS011;38261;54.090;13.382;2023-05-02T07:15:47;14.47;;;3.80;;
52320;SDS011;38261;54.090;13.382;2023-05-02T07:17:09;12.13;;;3.30;;
52320;SDS011;38261;54.090;13.382;2023-05-02T07:18:31;8.70;;;3.37;;
52320;SDS011;38261;54.090;13.382;2023-05-02T07:19:53;13.20;;;3.47;;
52320;SDS011;38261;54.090;13.382;2023-05-02T07:21:16;12.97;;;3.80;;
52320;SDS011;38261;54.090;13.382;2023-05-02T07:22:39;8.57;;;3.60;;
52320;SDS011;38261;54.090;13.382;2023-05-02T07:24:01;14.70;;;3.47;;
52320;SDS011;38261;54.090;13.382;2023-05-02T07:25:24;12.80;;;3.90;;
52320;SDS011;38261;54.090;13.382;2023-05-02T07:26:46;15.03;;;3.93;;
52320;SDS011;38261;54.090;13.382;2023-05-02T07:28:08;12.43;;;3.67;;
52320;SDS011;38261;54.090;13.382;2023-05-02T07:29:30;14.23;;;3.77;;
52320;SDS011;38261;54.090;13.382;2023-05-02T07:30:52;7.30;;;3.33;;
52320;SDS011;38261;54.090;13.382;2023-05-02T07:32:14;10.80;;;3.10;;
52320;SDS011;38261;54.090;13.382;2023-05-02T07:33:36;11.30;;;3.67;;
52320;SDS011;38261;54.090;13.382;2023-05-02T07:34:58;13.13;;;3.70;;
52320;SDS011;38261;54.090;13.382;2023-05-02T07:36:20;15.70;;;4.20;;
52320;SDS011;38261;54.090;13.382;2023-05-02T07:37:43;10.37;;;3.47;;
52320;SDS011;38261;54.090;13.382;2023-05-02T07:39:05;12.33;;;3.70;;
52320;SDS011;38261;54.090;13.382;2023-05-02T07:40:27;14.30;;;3.40;;
52320;SDS011;38261;54.090;13.382;2023-05-02T07:41:52;17.33;;;3.43;;
52320;SDS011;38261;54.090;13.382;2023-05-02T07:43:15;13.90;;;3.90;;
52320;SDS011;38261;54.090;13.382;2023-05-02T07:44:39;10.60;;;3.40;;
52320;SDS011;38261;54.090;13.382;2023-05-02T07:46:04;11.60;;;3.33;;
52320;SDS011;38261;54.090;13.382;2023-05-02T07:47:27;12.97;;;3.80;;
52320;SDS011;38261;54.090;13.382;2023-05-02T07:48:49;10.97;;;3.40;;
52320;SDS011;38261;54.090;13.382;2023-05-02T07:50:14;15.03;;;3.93;;
52320;SDS011;38261;54.090;13.382;2023-05-02T07:51:36;10.00;;;3.00;;
52320;SDS011;38261;54.090;13.382;2023-05-02T07:53:00;10.07;;;3.07;;
52320;SDS011;38261;54.090;13.382;2023-05-02T07:54:22;17.33;;;4.70;;
52320;SDS011;38261;54.090;13.382;2023-05-02T07:55:46;9.87;;;3.60;;
52320;SDS011;38261;54.090;13.382;2023-05-02T07:57:08;10.70;;;3.83;;
52320;SDS011;38261;54.090;13.382;2023-05-02T07:58:30;11.87;;;3.80;;
52320;SDS011;38261;54.090;13.382;2023-05-02T07:59:53;15.73;;;3.93;;
52320;SDS011;38261;54.090;13.382;2023-05-02T08:01:17;15.00;;;3.47;;
52320;SDS011;38261;54.090;13.382;2023-05-02T08:02:40;15.33;;;3.40;;
52320;SDS011;38261;54.090;13.382;2023-05-02T08:04:03;12.17;;;3.30;;
52320;SDS011;38261;54.090;13.382;2023-05-02T08:05:26;13.90;;;3.70;;
52320;SDS011;38261;54.090;13.382;2023-05-02T08:06:48;11.50;;;3.53;;
52320;SDS011;38261;54.090;13.382;2023-05-02T08:08:10;14.90;;;3.83;;
52320;SDS011;38261;54.090;13.382;2023-05-02T08:09:33;15.53;;;3.63;;
52320;SDS011;38261;54.090;13.382;2023-05-02T08:10:57;13.03;;;3.80;;
52320;SDS011;38261;54.090;13.382;2023-05-02T08:12:20;12.93;;;3.33;;
52320;SDS011;38261;54.090;13.382;2023-05-02T08:13:42;16.80;;;4.40;;
52320;SDS011;38261;54.090;13.382;2023-05-02T08:15:05;12.23;;;3.97;;
52320;SDS011;38261;54.090;13.382;2023-05-02T08:16:28;15.17;;;3.70;;
52320;SDS011;38261;54.090;13.382;2023-05-02T08:17:51;6.40;;;3.20;;
52320;SDS011;38261;54.090;13.382;2023-05-02T08:19:13;13.87;;;3.50;;
52320;SDS011;38261;54.090;13.382;2023-05-02T08:20:36;10.77;;;4.00;;
52320;SDS011;38261;54.090;13.382;2023-05-02T08:21:58;15.27;;;3.30;;
52320;SDS011;38261;54.090;13.382;2023-05-02T08:23:20;12.93;;;3.70;;
52320;SDS011;38261;54.090;13.382;2023-05-02T08:24:42;11.00;;;3.37;;
52320;SDS011;38261;54.090;13.382;2023-05-02T08:26:04;14.77;;;3.87;;
52320;SDS011;38261;54.090;13.382;2023-05-02T08:27:27;21.57;;;4.20;;
52320;SDS011;38261;54.090;13.382;2023-05-02T08:28:52;13.07;;;3.43;;
52320;SDS011;38261;54.090;13.382;2023-05-02T08:30:15;15.03;;;4.10;;
52320;SDS011;38261;54.090;13.382;2023-05-02T08:31:38;14.83;;;2.90;;
52320;SDS011;38261;54.090;13.382;2023-05-02T08:33:01;21.13;;;5.23;;